Time,TemperatureF,DewpointF,PressureIn,WindDirection,WindDirectionDegrees,WindSpeedMPH,WindSpeedGustMPH,Humidity,HourlyPrecipIn,Conditions,Clouds,dailyrainin,SolarRadiationWatts/m^2,SoftwareType,DateUTC
2013-05-25 00:02:00,65.0,58.0,-100.00,ESE,112,6.0,24.0,78,0.00,,,-99.99,0.000000,,2013-05-25 10:02:00,
2013-05-25 00:12:00,65.0,58.0,-100.00,ESE,112,6.0,24.0,78,0.00,,,-99.99,0.000000,,2013-05-25 10:12:00,
2013-05-25 00:22:00,65.0,58.0,-100.00,ESE,112,6.0,24.0,78,0.00,,,-99.99,0.000000,,2013-05-25 10:22:00,
2013-05-25 00:32:00,65.0,58.0,-100.00,ESE,112,6.0,24.0,78,0.00,,,-99.99,0.000000,,2013-05-25 10:32:00,
2013-05-25 00:52:00,63.0,56.0,-100.00,ESE,119,3.0,15.0,78,0.00,,,0.00,0.000000,,2013-05-25 10:52:00,
2013-05-25 01:02:00,63.0,56.0,-100.00,ESE,119,3.0,15.0,78,0.00,,,0.00,0.000000,,2013-05-25 11:02:00,
2013-05-25 01:12:00,63.0,56.0,-100.00,ESE,119,3.0,15.0,78,0.00,,,0.00,0.000000,,2013-05-25 11:12:00,
2013-05-25 01:21:00,63.0,56.0,-100.00,ESE,119,3.0,15.0,78,0.00,,,0.00,0.000000,,2013-05-25 11:21:00,
2013-05-25 01:32:00,63.0,56.0,-100.00,ESE,119,3.0,15.0,78,0.00,,,0.00,0.000000,,2013-05-25 11:32:00,
2013-05-25 02:01:00,64.0,57.0,-100.00,East,80,2.0,16.0,79,0.00,,,0.00,0.000000,,2013-05-25 12:01:00,
2013-05-25 02:12:00,64.0,57.0,-100.00,East,80,2.0,16.0,79,0.00,,,0.00,0.000000,,2013-05-25 12:12:00,
2013-05-25 02:21:00,64.0,57.0,-100.00,East,80,2.0,16.0,79,0.00,,,0.00,0.000000,,2013-05-25 12:21:00,
2013-05-25 02:32:00,64.0,57.0,-100.00,East,80,2.0,16.0,79,0.00,,,0.00,0.000000,,2013-05-25 12:32:00,
2013-05-25 02:52:00,65.0,59.0,-100.00,South,182,2.0,13.0,82,0.00,,,0.00,0.000000,,2013-05-25 12:52:00,
2013-05-25 03:02:00,65.0,59.0,-100.00,South,182,2.0,13.0,82,0.00,,,0.00,0.000000,,2013-05-25 13:02:00,
2013-05-25 03:11:00,65.0,59.0,-100.00,South,182,2.0,13.0,82,0.00,,,0.00,0.000000,,2013-05-25 13:11:00,
2013-05-25 03:21:00,65.0,59.0,-100.00,South,182,2.0,13.0,82,0.00,,,0.00,0.000000,,2013-05-25 13:21:00,
2013-05-25 03:32:00,65.0,59.0,-100.00,South,182,2.0,13.0,82,0.00,,,0.00,0.000000,,2013-05-25 13:32:00,
2013-05-25 03:52:00,63.0,58.0,-100.00,SSW,204,3.0,15.0,85,0.00,,,0.00,0.000000,,2013-05-25 13:52:00,
2013-05-25 04:02:00,63.0,58.0,-100.00,SSW,204,3.0,15.0,85,0.00,,,0.00,0.000000,,2013-05-25 14:02:00,
2013-05-25 04:11:00,63.0,58.0,-100.00,SSW,204,3.0,15.0,85,0.00,,,0.00,0.000000,,2013-05-25 14:11:00,
2013-05-25 04:22:00,63.0,58.0,-100.00,SSW,204,3.0,15.0,85,0.00,,,0.00,0.000000,,2013-05-25 14:22:00,
2013-05-25 04:32:00,63.0,58.0,-100.00,SSW,204,3.0,15.0,85,0.00,,,0.00,0.000000,,2013-05-25 14:32:00,
2013-05-25 05:01:00,63.0,59.0,-100.00,West,272,2.0,10.0,86,0.00,,,0.00,0.000000,,2013-05-25 15:01:00,
2013-05-25 05:11:00,63.0,59.0,-100.00,West,272,2.0,10.0,86,0.00,,,0.00,0.000000,,2013-05-25 15:11:00,
2013-05-25 05:22:00,63.0,59.0,-100.00,West,272,2.0,10.0,86,0.00,,,0.00,0.000000,,2013-05-25 15:22:00,
2013-05-25 05:33:00,63.0,59.0,-100.00,West,272,2.0,10.0,86,0.00,,,0.00,0.000000,,2013-05-25 15:33:00,
2013-05-25 06:03:00,63.0,58.0,-100.00,SSE,162,3.0,12.0,85,0.00,,,-99.99,0.000000,,2013-05-25 16:03:00,
2013-05-25 06:12:00,63.0,58.0,-100.00,SSE,162,3.0,12.0,85,0.00,,,-99.99,0.000000,,2013-05-25 16:12:00,
2013-05-25 06:23:00,63.0,58.0,-100.00,SSE,162,3.0,12.0,85,0.00,,,-99.99,0.000000,,2013-05-25 16:23:00,
2013-05-25 06:32:00,63.0,58.0,-100.00,SSE,162,3.0,12.0,85,0.00,,,-99.99,0.000000,,2013-05-25 16:32:00,
2013-05-25 06:52:00,65.0,59.0,-100.00,North,0,2.0,8.0,82,0.00,,,0.00,70.000000,,2013-05-25 16:52:00,
2013-05-25 07:02:00,65.0,59.0,-100.00,North,0,2.0,8.0,82,0.00,,,0.00,70.000000,,2013-05-25 17:02:00,
2013-05-25 07:11:00,65.0,59.0,-100.00,North,0,2.0,8.0,82,0.00,,,0.00,70.000000,,2013-05-25 17:11:00,
2013-05-25 07:22:00,65.0,59.0,-100.00,North,0,2.0,8.0,82,0.00,,,0.00,70.000000,,2013-05-25 17:22:00,
2013-05-25 07:32:00,65.0,59.0,-100.00,North,0,2.0,8.0,82,0.00,,,0.00,70.000000,,2013-05-25 17:32:00,
2013-05-25 07:52:00,73.0,61.0,-100.00,SSE,157,5.0,15.0,67,0.00,,,0.00,454.000000,,2013-05-25 17:52:00,
2013-05-25 08:01:00,73.0,61.0,-100.00,SSE,157,5.0,15.0,67,0.00,,,0.00,454.000000,,2013-05-25 18:01:00,
2013-05-25 08:11:00,73.0,61.0,-100.00,SSE,157,5.0,15.0,67,0.00,,,0.00,454.000000,,2013-05-25 18:11:00,
2013-05-25 08:21:00,73.0,61.0,-100.00,SSE,157,5.0,15.0,67,0.00,,,0.00,454.000000,,2013-05-25 18:21:00,
2013-05-25 08:31:00,73.0,61.0,-100.00,SSE,157,5.0,15.0,67,0.00,,,0.00,454.000000,,2013-05-25 18:31:00,
2013-05-25 08:52:00,72.0,60.0,-100.00,SSW,200,3.0,18.0,67,0.00,,,0.00,754.000000,,2013-05-25 18:52:00,
2013-05-25 09:01:00,72.0,60.0,-100.00,SSW,200,3.0,18.0,67,0.00,,,0.00,754.000000,,2013-05-25 19:01:00,
2013-05-25 09:11:00,72.0,60.0,-100.00,SSW,200,3.0,18.0,67,0.00,,,0.00,754.000000,,2013-05-25 19:11:00,
2013-05-25 09:21:00,72.0,60.0,-100.00,SSW,200,3.0,18.0,67,0.00,,,0.00,754.000000,,2013-05-25 19:21:00,
2013-05-25 09:31:00,72.0,60.0,-100.00,SSW,200,3.0,18.0,67,0.00,,,0.00,754.000000,,2013-05-25 19:31:00,
2013-05-25 09:52:00,73.0,61.0,-100.00,ESE,106,3.0,16.0,65,0.00,,,0.00,797.000000,,2013-05-25 19:52:00,
2013-05-25 10:02:00,73.0,61.0,-100.00,ESE,106,3.0,16.0,65,0.00,,,0.00,797.000000,,2013-05-25 20:02:00,
2013-05-25 10:11:00,73.0,61.0,-100.00,ESE,106,3.0,16.0,65,0.00,,,0.00,797.000000,,2013-05-25 20:11:00,
2013-05-25 10:21:00,73.0,61.0,-100.00,ESE,106,3.0,16.0,65,0.00,,,0.00,797.000000,,2013-05-25 20:21:00,
2013-05-25 10:32:00,73.0,61.0,-100.00,ESE,106,3.0,16.0,65,0.00,,,0.00,797.000000,,2013-05-25 20:32:00,
2013-05-25 10:52:00,69.0,62.0,-100.00,ESE,116,4.0,12.0,78,0.00,,,0.00,510.000000,,2013-05-25 20:52:00,
2013-05-25 11:02:00,69.0,62.0,-100.00,ESE,116,4.0,12.0,78,0.00,,,0.00,510.000000,,2013-05-25 21:02:00,
2013-05-25 11:11:00,69.0,62.0,-100.00,ESE,116,4.0,12.0,78,0.00,,,0.00,510.000000,,2013-05-25 21:11:00,
2013-05-25 11:21:00,69.0,62.0,-100.00,ESE,116,4.0,12.0,78,0.00,,,0.00,510.000000,,2013-05-25 21:21:00,
2013-05-25 11:32:00,69.0,62.0,-100.00,ESE,116,4.0,12.0,78,0.00,,,0.00,510.000000,,2013-05-25 21:32:00,
2013-05-25 11:53:00,73.0,63.0,-100.00,ENE,78,5.0,22.0,70,0.00,,,0.00,755.000000,,2013-05-25 21:53:00,
2013-05-25 12:03:00,73.0,63.0,-100.00,ENE,78,5.0,22.0,70,0.00,,,0.00,755.000000,,2013-05-25 22:03:00,
2013-05-25 12:12:00,73.0,63.0,-100.00,ENE,78,5.0,22.0,70,0.00,,,0.00,755.000000,,2013-05-25 22:12:00,
2013-05-25 12:22:00,73.0,63.0,-100.00,ENE,78,5.0,22.0,70,0.00,,,0.00,755.000000,,2013-05-25 22:22:00,
2013-05-25 12:32:00,73.0,63.0,-100.00,ENE,78,5.0,22.0,70,0.00,,,0.00,755.000000,,2013-05-25 22:32:00,
2013-05-25 12:52:00,74.0,65.0,-100.00,East,82,5.0,18.0,73,0.00,,,0.00,976.000000,,2013-05-25 22:52:00,
2013-05-25 13:02:00,74.0,65.0,-100.00,East,82,5.0,18.0,73,0.00,,,0.00,976.000000,,2013-05-25 23:02:00,
2013-05-25 13:12:00,74.0,65.0,-100.00,East,82,5.0,18.0,73,0.00,,,0.00,976.000000,,2013-05-25 23:12:00,
2013-05-25 13:21:00,74.0,65.0,-100.00,East,82,5.0,18.0,73,0.00,,,0.00,976.000000,,2013-05-25 23:21:00,
2013-05-25 13:32:00,74.0,65.0,-100.00,East,82,5.0,18.0,73,0.00,,,0.00,976.000000,,2013-05-25 23:32:00,
2013-05-25 13:52:00,71.0,63.0,-100.00,East,86,8.0,20.0,75,0.00,,,0.00,1141.000000,,2013-05-25 23:52:00,
2013-05-25 14:01:00,71.0,63.0,-100.00,East,86,8.0,20.0,75,0.00,,,0.00,1141.000000,,2013-05-26 00:01:00,
2013-05-25 14:11:00,71.0,63.0,-100.00,East,86,8.0,20.0,75,0.00,,,0.00,1141.000000,,2013-05-26 00:11:00,
2013-05-25 14:21:00,71.0,63.0,-100.00,East,86,8.0,20.0,75,0.00,,,0.00,1141.000000,,2013-05-26 00:21:00,
2013-05-25 14:31:00,71.0,63.0,-100.00,East,86,8.0,20.0,75,0.00,,,0.00,1141.000000,,2013-05-26 00:31:00,
2013-05-25 15:01:00,70.0,64.0,-100.00,ENE,75,10.0,24.0,82,0.00,,,0.00,1103.000000,,2013-05-26 01:01:00,
2013-05-25 15:11:00,70.0,64.0,-100.00,ENE,75,10.0,24.0,82,0.00,,,0.00,1103.000000,,2013-05-26 01:11:00,
2013-05-25 15:21:00,70.0,64.0,-100.00,ENE,75,10.0,24.0,82,0.00,,,0.00,1103.000000,,2013-05-26 01:21:00,
2013-05-25 15:32:00,70.0,64.0,-100.00,ENE,75,10.0,24.0,82,0.00,,,0.00,1103.000000,,2013-05-26 01:32:00,
2013-05-25 15:52:00,71.0,64.0,-100.00,NNE,32,11.0,26.0,78,0.00,,,0.00,1012.000000,,2013-05-26 01:52:00,
2013-05-25 16:02:00,71.0,64.0,-100.00,NNE,32,11.0,26.0,78,0.00,,,0.00,1012.000000,,2013-05-26 02:02:00,
2013-05-25 16:11:00,71.0,64.0,-100.00,NNE,32,11.0,26.0,78,0.00,,,0.00,1012.000000,,2013-05-26 02:11:00,
2013-05-25 16:21:00,71.0,64.0,-100.00,NNE,32,11.0,26.0,78,0.00,,,0.00,1012.000000,,2013-05-26 02:21:00,
2013-05-25 16:32:00,71.0,64.0,-100.00,NNE,32,11.0,26.0,78,0.00,,,0.00,1012.000000,,2013-05-26 02:32:00,
2013-05-25 16:52:00,68.0,62.0,-100.00,NE,40,10.0,33.0,81,0.00,,,0.00,667.000000,,2013-05-26 02:52:00,
2013-05-25 17:01:00,68.0,62.0,-100.00,NE,40,10.0,33.0,81,0.00,,,0.00,667.000000,,2013-05-26 03:01:00,
2013-05-25 17:11:00,68.0,62.0,-100.00,NE,40,10.0,33.0,81,0.00,,,0.00,667.000000,,2013-05-26 03:11:00,
2013-05-25 17:21:00,68.0,62.0,-100.00,NE,40,10.0,33.0,81,0.00,,,0.00,667.000000,,2013-05-26 03:21:00,
2013-05-25 17:33:00,68.0,62.0,-100.00,NE,40,10.0,33.0,81,0.00,,,0.00,667.000000,,2013-05-26 03:33:00,
2013-05-25 17:53:00,66.0,63.0,-100.00,NE,49,10.0,25.0,89,0.00,,,0.00,141.000000,,2013-05-26 03:53:00,
2013-05-25 18:02:00,66.0,63.0,-100.00,NE,49,10.0,25.0,89,0.00,,,0.00,141.000000,,2013-05-26 04:02:00,
2013-05-25 18:12:00,66.0,63.0,-100.00,NE,49,10.0,25.0,89,0.00,,,0.00,141.000000,,2013-05-26 04:12:00,
2013-05-25 18:23:00,66.0,63.0,-100.00,NE,49,10.0,25.0,89,0.00,,,0.00,141.000000,,2013-05-26 04:23:00,
2013-05-25 18:33:00,66.0,63.0,-100.00,NE,49,10.0,25.0,89,0.00,,,0.00,141.000000,,2013-05-26 04:33:00,
2013-05-25 19:02:00,64.0,60.0,-100.00,NE,47,12.0,28.0,86,0.00,,,0.00,74.000000,,2013-05-26 05:02:00,
2013-05-25 19:12:00,64.0,60.0,-100.00,NE,47,12.0,28.0,86,0.00,,,0.00,74.000000,,2013-05-26 05:12:00,
2013-05-25 19:22:00,64.0,60.0,-100.00,NE,47,12.0,28.0,86,0.00,,,0.00,74.000000,,2013-05-26 05:22:00,
2013-05-25 19:32:00,64.0,60.0,-100.00,NE,47,12.0,28.0,86,0.00,,,0.00,74.000000,,2013-05-26 05:32:00,
2013-05-25 19:52:00,64.0,59.0,-100.00,NE,35,12.0,31.0,83,0.00,,,0.00,12.000000,,2013-05-26 05:52:00,
2013-05-25 20:01:00,64.0,59.0,-100.00,NE,35,12.0,31.0,83,0.00,,,0.00,12.000000,,2013-05-26 06:01:00,
2013-05-25 20:11:00,64.0,59.0,-100.00,NE,35,12.0,31.0,83,0.00,,,0.00,12.000000,,2013-05-26 06:11:00,
2013-05-25 20:21:00,64.0,59.0,-100.00,NE,35,12.0,31.0,83,0.00,,,0.00,12.000000,,2013-05-26 06:21:00,
2013-05-25 20:32:00,64.0,59.0,-100.00,NE,35,12.0,31.0,83,0.00,,,0.00,12.000000,,2013-05-26 06:32:00,
2013-05-25 21:01:00,65.0,59.0,-100.00,SSE,168,8.0,29.0,81,0.00,,,0.00,0.000000,,2013-05-26 07:01:00,
2013-05-25 21:11:00,65.0,59.0,-100.00,SSE,168,8.0,29.0,81,0.00,,,0.00,0.000000,,2013-05-26 07:11:00,
2013-05-25 21:21:00,65.0,59.0,-100.00,SSE,168,8.0,29.0,81,0.00,,,0.00,0.000000,,2013-05-26 07:21:00,
2013-05-25 21:31:00,65.0,59.0,-100.00,SSE,168,8.0,29.0,81,0.00,,,0.00,0.000000,,2013-05-26 07:31:00,
2013-05-25 22:01:00,64.0,58.0,-100.00,ENE,75,10.0,28.0,82,0.00,,,0.00,0.000000,,2013-05-26 08:01:00,
2013-05-25 22:11:00,64.0,58.0,-100.00,ENE,75,10.0,28.0,82,0.00,,,0.00,0.000000,,2013-05-26 08:11:00,
2013-05-25 22:21:00,64.0,58.0,-100.00,ENE,75,10.0,28.0,82,0.00,,,0.00,0.000000,,2013-05-26 08:21:00,
2013-05-25 22:31:00,64.0,58.0,-100.00,ENE,75,10.0,28.0,82,0.00,,,0.00,0.000000,,2013-05-26 08:31:00,
2013-05-25 22:53:00,65.0,59.0,-100.00,ENE,67,10.0,24.0,81,0.00,,,0.00,0.000000,,2013-05-26 08:53:00,
2013-05-25 23:01:00,65.0,59.0,-100.00,ENE,67,10.0,24.0,81,0.00,,,0.00,0.000000,,2013-05-26 09:01:00,
2013-05-25 23:11:00,65.0,59.0,-100.00,ENE,67,10.0,24.0,81,0.00,,,0.00,0.000000,,2013-05-26 09:11:00,
2013-05-25 23:21:00,65.0,59.0,-100.00,ENE,67,10.0,24.0,81,0.00,,,0.00,0.000000,,2013-05-26 09:21:00,
2013-05-25 23:33:00,65.0,59.0,-100.00,ENE,67,10.0,24.0,81,0.00,,,0.00,0.000000,,2013-05-26 09:33:00,
2013-05-25 23:53:00,64.0,58.0,-100.00,SSW,199,6.0,23.0,82,0.00,,,0.00,0.000000,,2013-05-26 09:53:00,